createdAt,value
2019-02-10T00:01:55.343Z,100005.53
2019-02-10T00:04:24.846Z,100004.55
2019-02-10T00:06:54.396Z,99999.71
2019-02-10T00:09:23.903Z,100009.25
2019-02-10T00:11:53.376Z,100005.05
2019-02-10T00:14:23.904Z,100005.53
2019-02-10T00:16:53.375Z,100004.28
2019-02-10T00:19:22.874Z,100002.20
2019-02-10T00:21:52.345Z,99994.36
2019-02-10T00:24:21.841Z,99993.48
2019-02-10T00:26:51.321Z,99981.95
2019-02-10T00:29:20.818Z,99981.69
2019-02-10T00:31:50.360Z,99982.69
2019-02-10T00:34:19.838Z,99973.28
2019-02-10T00:36:49.314Z,99976.31
2019-02-10T00:39:18.809Z,99971.06
2019-02-10T00:41:48.279Z,99966.88
2019-02-10T00:44:17.843Z,99968.96
2019-02-10T00:46:47.313Z,99961.34
2019-02-10T00:49:16.794Z,99954.95
2019-02-10T00:51:46.272Z,99957.14
2019-02-10T00:54:15.750Z,99958.41
2019-02-10T00:56:45.217Z,99946.41
2019-02-10T00:59:14.699Z,99948.15
2019-02-10T01:01:44.180Z,99947.29
2019-02-10T01:04:13.651Z,99943.18
2019-02-10T01:06:43.136Z,99931.17
2019-02-10T01:09:12.713Z,99937.39
2019-02-10T01:11:42.228Z,99929.47
2019-02-10T01:14:11.785Z,99929.88
2019-02-10T01:16:41.269Z,99923.59
2019-02-10T01:19:11.253Z,99921.41
2019-02-10T01:21:42.320Z,99919.23
2019-02-10T01:24:11.811Z,99909.11
2019-02-10T01:26:41.276Z,99909.85
2019-02-10T01:29:10.819Z,99903.79
2019-02-10T01:31:40.292Z,99898.39
2019-02-10T01:34:09.782Z,99898.80
2019-02-10T01:36:39.257Z,99891.63
2019-02-10T01:39:17.240Z,99883.73
2019-02-10T01:41:46.725Z,99885.99
2019-02-10T01:44:16.298Z,99881.11
2019-02-10T01:46:45.778Z,99875.10
2019-02-10T01:49:15.257Z,99873.83
2019-02-10T01:51:44.717Z,99861.11
2019-02-10T01:54:14.208Z,99852.97
2019-02-10T01:56:43.679Z,99837.79
2019-02-10T01:59:13.147Z,99831.77
2019-02-10T02:01:43.680Z,99825.34
2019-02-10T02:04:13.164Z,99824.92
2019-02-10T02:06:42.648Z,99819.34
2019-02-10T02:09:13.775Z,99813.48
2019-02-10T02:11:43.316Z,99807.12
2019-02-10T02:14:12.807Z,99809.72
2019-02-10T02:16:42.291Z,99792.70
2019-02-10T02:19:11.867Z,99795.67
2019-02-10T02:21:41.504Z,99792.58
2019-02-10T02:24:10.982Z,99790.58
2019-02-10T02:26:40.471Z,99780.80
2019-02-10T02:29:10.015Z,99772.45
2019-02-10T02:31:39.502Z,99761.80
2019-02-10T02:34:08.982Z,99761.34
2019-02-10T02:36:44.566Z,99760.09
2019-02-10T02:39:14.055Z,99753.44
2019-02-10T02:41:43.538Z,99743.31
2019-02-10T02:44:13.001Z,99745.42
2019-02-10T02:46:42.480Z,99745.77
2019-02-10T02:49:12.147Z,99734.34
2019-02-10T02:51:41.623Z,99728.84
2019-02-10T02:54:11.102Z,99730.52
2019-02-10T02:56:41.554Z,99726.34
2019-02-10T02:59:11.020Z,99722.03
2019-02-10T03:01:40.510Z,99723.38
2019-02-10T03:04:09.981Z,99724.27
2019-02-10T03:06:46.039Z,99719.13
2019-02-10T03:09:16.537Z,99708.29
2019-02-10T03:11:46.019Z,99697.71
2019-02-10T03:14:15.504Z,99694.27
2019-02-10T03:16:44.989Z,99688.78
2019-02-10T03:19:14.559Z,99680.28
2019-02-10T03:21:44.075Z,99677.73
2019-02-10T03:24:13.675Z,99675.66
2019-02-10T03:26:43.161Z,99669.25
2019-02-10T03:29:12.635Z,99666.39
2019-02-10T03:31:42.119Z,99661.73
2019-02-10T03:34:11.607Z,99653.19
2019-02-10T03:36:42.041Z,99649.38
2019-02-10T03:39:11.514Z,99643.48
2019-02-10T03:41:41.061Z,99636.27
2019-02-10T03:44:10.532Z,99633.73
2019-02-10T03:46:40.021Z,99627.91
2019-02-10T03:49:09.532Z,99619.45
2019-02-10T03:51:39.021Z,99618.27
2019-02-10T03:54:08.509Z,99606.38
2019-02-10T03:56:38.082Z,99606.75
2019-02-10T03:59:07.569Z,99596.87
2019-02-10T04:01:37.049Z,99590.14
2019-02-10T04:04:06.640Z,99585.43
2019-02-10T04:06:36.131Z,99582.86
2019-02-10T04:09:06.452Z,99574.80
2019-02-10T04:11:35.944Z,99579.42
2019-02-10T04:14:05.426Z,99567.52
2019-02-10T04:16:34.925Z,99567.05
2019-02-10T04:19:04.405Z,99560.75
2019-02-10T04:21:33.881Z,99502.78
2019-02-10T04:24:03.355Z,99550.96
2019-02-10T04:26:32.867Z,99542.47
2019-02-10T04:29:02.345Z,99535.16
2019-02-10T04:31:31.837Z,99532.50
2019-02-10T04:34:01.339Z,99519.47
2019-02-10T04:36:30.852Z,99502.50
2019-02-10T04:39:00.372Z,99497.83
2019-02-10T04:41:30.000Z,99486.78
2019-02-10T04:43:59.526Z,99484.28
2019-02-10T04:46:29.016Z,99474.55
2019-02-10T04:48:58.537Z,99469.46
2019-02-10T04:51:28.028Z,99466.48
2019-02-10T04:53:57.499Z,99462.20
2019-02-10T04:56:26.981Z,99471.50
2019-02-10T04:58:56.488Z,99471.92
2019-02-10T05:01:25.953Z,99465.14
2019-02-10T05:03:55.452Z,99462.08
2019-02-10T05:06:24.943Z,99461.53
2019-02-10T05:08:54.427Z,99457.27
2019-02-10T05:11:23.900Z,99443.28
2019-02-10T05:13:53.388Z,99435.66
2019-02-10T05:16:22.865Z,99424.28
2019-02-10T05:18:52.341Z,99417.48
2019-02-10T05:21:21.822Z,99408.14
2019-02-10T05:23:51.321Z,99390.36
2019-02-10T05:26:20.820Z,99382.27
2019-02-10T05:28:50.307Z,99374.59
2019-02-10T05:31:19.772Z,99371.65
2019-02-10T05:33:49.274Z,99315.96
2019-02-10T05:36:18.770Z,99356.38
2019-02-10T05:38:48.250Z,99349.97
2019-02-10T05:41:17.721Z,99348.34
2019-02-10T05:43:47.201Z,99338.05
2019-02-10T05:46:16.745Z,99336.43
2019-02-10T05:48:46.191Z,99330.52
2019-02-10T05:51:15.654Z,99315.14
2019-02-10T05:53:45.146Z,99319.32
2019-02-10T05:56:14.603Z,99312.92
2019-02-10T05:58:44.111Z,99306.13
2019-02-10T06:01:50.282Z,99301.09
2019-02-10T06:04:19.790Z,99289.12
2019-02-10T06:06:49.303Z,99277.16
2019-02-10T06:09:19.181Z,99271.31
2019-02-10T06:11:48.678Z,99268.34
2019-02-10T06:14:18.174Z,99256.08
2019-02-10T06:16:47.660Z,99247.57
2019-02-10T06:19:17.139Z,99240.68
2019-02-10T06:21:46.603Z,99231.38
2019-02-10T06:24:16.085Z,99219.89
2019-02-10T06:26:45.568Z,99207.96
2019-02-10T06:29:15.052Z,99206.30
2019-02-10T06:31:44.523Z,99185.14
2019-02-10T06:34:13.995Z,99175.77
2019-02-10T06:36:43.479Z,99173.25
2019-02-10T06:39:12.972Z,99155.92
2019-02-10T06:41:42.432Z,99148.30
2019-02-10T06:44:11.915Z,99145.39
2019-02-10T06:46:41.410Z,99130.19
2019-02-10T06:49:10.947Z,99117.86
2019-02-10T06:51:40.386Z,99103.88
2019-02-10T06:54:09.863Z,99096.18
2019-02-10T06:56:39.357Z,99083.48
2019-02-10T06:59:14.032Z,99079.71
2019-02-10T07:01:47.092Z,99069.17
2019-02-10T07:04:29.936Z,99055.20
2019-02-10T07:06:59.441Z,99050.51
2019-02-10T07:09:28.927Z,99040.78
2019-02-10T07:11:58.437Z,99036.98
2019-02-10T07:14:33.585Z,99028.06
2019-02-10T07:17:18.138Z,99012.86
2019-02-10T07:20:33.509Z,99006.94
2019-02-10T07:23:40.198Z,99002.30
2019-02-10T07:26:16.047Z,98980.27
2019-02-10T07:29:25.714Z,98975.61
2019-02-10T07:31:58.169Z,98965.84
2019-02-10T07:35:03.921Z,98951.05
2019-02-10T07:37:47.964Z,98941.29
2019-02-10T07:40:45.246Z,98927.75
2019-02-10T07:43:22.191Z,98920.11
2019-02-10T07:46:19.064Z,98909.52
2019-02-10T07:49:09.749Z,98893.45
2019-02-10T07:51:59.847Z,98869.72
2019-02-10T07:55:06.570Z,98862.95
2019-02-10T07:58:39.997Z,98860.83
2019-02-10T08:01:38.611Z,98855.31
2019-02-10T08:04:51.385Z,98857.87
2019-02-10T08:07:56.126Z,98834.16
2019-02-10T08:10:59.969Z,98828.66
2019-02-10T08:13:50.357Z,98833.28
2019-02-10T08:16:51.817Z,98818.06
2019-02-10T08:20:12.020Z,98802.81
2019-02-10T08:23:07.330Z,98799.42
2019-02-10T08:26:11.971Z,98788.81
2019-02-10T08:29:19.781Z,98773.59
2019-02-10T08:32:25.505Z,98765.09
2019-02-10T08:35:13.167Z,98757.44
2019-02-10T08:38:20.954Z,98736.27
2019-02-10T08:41:35.029Z,98730.80
2019-02-10T08:44:26.217Z,98717.65
2019-02-10T08:47:33.965Z,98715.88
2019-02-10T08:50:25.444Z,98709.47
2019-02-10T08:53:02.319Z,98702.24
2019-02-10T08:55:31.787Z,98686.58
2019-02-10T08:58:01.266Z,98685.77
2019-02-10T09:00:30.750Z,98676.84
2019-02-10T09:03:00.241Z,98685.28
2019-02-10T09:05:29.709Z,98662.34
2019-02-10T09:07:59.210Z,98652.27
2019-02-10T09:10:28.745Z,98637.39
2019-02-10T09:12:58.245Z,98632.66
2019-02-10T09:15:27.762Z,98615.52
2019-02-10T09:17:57.247Z,98605.38
2019-02-10T09:20:26.748Z,98596.90
2019-02-10T09:22:56.231Z,98587.61
2019-02-10T09:25:25.728Z,98567.22
2019-02-10T09:27:55.225Z,98554.41
2019-02-10T09:30:24.706Z,98559.91
2019-02-10T09:32:54.210Z,98548.45
2019-02-10T09:35:23.682Z,98542.47
2019-02-10T09:37:53.144Z,98526.93
2019-02-10T09:40:22.646Z,98519.98
2019-02-10T09:42:52.137Z,98515.69
2019-02-10T09:45:21.617Z,98504.28
2019-02-10T09:47:51.109Z,98491.61
2019-02-10T09:50:21.219Z,98503.06
2019-02-10T09:52:50.695Z,98498.77
2019-02-10T09:55:20.257Z,98492.34
2019-02-10T09:57:49.743Z,98481.38
2019-02-10T10:00:19.279Z,98497.88
2019-02-10T10:02:48.756Z,98496.65
2019-02-10T10:05:18.237Z,98495.89
2019-02-10T10:07:47.977Z,98493.14
2019-02-10T10:10:17.489Z,98465.77
2019-02-10T10:12:46.968Z,98497.55
2019-02-10T10:15:16.557Z,98491.98
2019-02-10T10:17:46.044Z,98485.03
2019-02-10T10:20:16.917Z,98488.31
2019-02-10T10:22:46.440Z,98488.80
2019-02-10T10:25:15.961Z,98486.72
2019-02-10T10:27:45.463Z,98483.70
2019-02-10T10:30:16.507Z,98482.48
2019-02-10T10:32:45.973Z,98480.60
2019-02-10T10:35:15.469Z,98471.08
2019-02-10T10:37:45.215Z,98460.74
2019-02-10T10:40:14.726Z,98457.05
2019-02-10T10:42:44.196Z,98459.63
2019-02-10T10:45:13.794Z,98456.63
2019-02-10T10:47:43.364Z,98453.52
2019-02-10T10:50:13.250Z,98444.40
2019-02-10T10:52:42.806Z,98435.83
2019-02-10T10:55:12.394Z,98433.61
2019-02-10T10:57:41.876Z,98425.13
2019-02-10T11:00:12.092Z,98419.25
2019-02-10T11:02:41.614Z,98415.78
2019-02-10T11:05:11.275Z,98409.08
2019-02-10T11:07:41.843Z,98401.83
2019-02-10T11:10:11.449Z,98397.09
2019-02-10T11:12:40.951Z,98394.55
2019-02-10T11:15:10.875Z,98391.92
2019-02-10T11:17:40.451Z,98378.66
2019-02-10T11:20:10.583Z,98378.20
2019-02-10T11:22:40.750Z,98379.39
2019-02-10T11:25:10.332Z,98378.05
2019-02-10T11:27:39.905Z,98357.70
2019-02-10T11:30:10.049Z,98353.58
2019-02-10T11:32:39.528Z,98351.34
2019-02-10T11:35:09.096Z,98337.66
2019-02-10T11:37:38.590Z,98346.93
2019-02-10T11:40:09.240Z,98340.03
2019-02-10T11:42:38.802Z,98318.23
2019-02-10T11:45:09.221Z,98329.23
2019-02-10T11:47:38.736Z,98313.55
2019-02-10T11:50:09.060Z,98314.09
2019-02-10T11:52:38.553Z,98312.89
2019-02-10T11:55:08.113Z,98318.16
2019-02-10T11:57:37.692Z,98300.87
2019-02-10T12:00:09.426Z,98308.86
2019-02-10T12:02:38.940Z,98300.00
2019-02-10T12:05:09.762Z,98290.70
2019-02-10T12:07:39.388Z,98286.03
2019-02-10T12:10:09.034Z,98290.03
2019-02-10T12:12:39.484Z,98282.90
2019-02-10T12:15:09.531Z,98284.84
2019-02-10T12:17:39.037Z,98281.14
2019-02-10T12:20:09.374Z,98278.77
2019-02-10T12:22:38.864Z,98263.70
2019-02-10T12:25:08.387Z,98264.95
2019-02-10T12:27:38.018Z,98248.86
2019-02-10T12:30:09.866Z,98262.19
2019-02-10T12:32:39.389Z,98236.50
2019-02-10T12:35:10.256Z,98245.40
2019-02-10T12:37:39.761Z,98233.48
2019-02-10T12:40:09.450Z,98233.06
2019-02-10T12:42:39.077Z,98229.51
2019-02-10T12:45:09.053Z,98227.48
2019-02-10T12:47:38.874Z,98222.91
2019-02-10T12:50:09.748Z,98223.50
2019-02-10T12:52:39.307Z,98226.73
2019-02-10T12:55:09.147Z,98230.95
2019-02-10T12:57:38.970Z,98229.58
2019-02-10T13:00:11.501Z,98218.93
2019-02-10T13:02:41.047Z,98231.99
2019-02-10T13:05:10.630Z,98217.05
2019-02-10T13:07:40.142Z,98211.81
2019-02-10T13:10:10.841Z,98205.07
2019-02-10T13:12:40.380Z,98206.85
2019-02-10T13:15:09.995Z,98197.36
2019-02-10T13:17:39.529Z,98191.34
2019-02-10T13:20:09.138Z,98185.70
2019-02-10T13:22:39.597Z,98187.92
2019-02-10T13:25:10.218Z,98180.82
2019-02-10T13:27:40.766Z,98183.06
2019-02-10T13:30:11.950Z,98182.22
2019-02-10T13:32:41.412Z,98171.67
2019-02-10T13:35:10.983Z,98174.76
2019-02-10T13:37:40.537Z,98169.94
2019-02-10T13:40:16.708Z,98168.18
2019-02-10T13:42:44.531Z,98176.98
2019-02-10T13:45:14.314Z,98172.75
2019-02-10T13:47:43.984Z,98178.89
2019-02-10T13:50:14.225Z,98179.30
2019-02-10T13:52:43.724Z,98170.81
2019-02-10T13:55:13.215Z,98183.21
2019-02-10T13:57:42.695Z,98175.56
2019-02-10T14:00:14.735Z,98164.41
2019-02-10T14:02:44.236Z,98181.89
2019-02-10T14:05:13.730Z,98189.80
2019-02-10T14:07:43.223Z,98180.69
2019-02-10T14:10:13.235Z,98185.64
2019-02-10T14:12:42.724Z,98181.97
2019-02-10T14:15:12.928Z,98184.88
2019-02-10T14:17:42.430Z,98187.63
2019-02-10T14:20:13.973Z,98194.36
2019-02-10T14:22:43.504Z,98200.88
2019-02-10T14:25:13.048Z,98209.17
2019-02-10T14:27:42.614Z,98209.36
2019-02-10T14:30:13.573Z,98215.00
2019-02-10T14:32:43.061Z,98208.64
2019-02-10T14:35:12.566Z,98211.52
2019-02-10T14:37:42.050Z,98204.81
2019-02-10T14:40:11.628Z,98217.17
2019-02-10T14:42:41.097Z,98222.25
2019-02-10T14:45:12.812Z,98219.41
2019-02-10T14:47:42.480Z,98209.27
2019-02-10T14:50:13.367Z,98223.09
2019-02-10T14:52:42.850Z,98215.88
2019-02-10T14:55:12.343Z,98224.76
2019-02-10T14:57:41.824Z,98223.61
2019-02-10T15:00:12.499Z,98227.55
2019-02-10T15:02:41.984Z,98229.12
2019-02-10T15:05:11.544Z,98241.34
2019-02-10T15:07:41.020Z,98237.56
2019-02-10T15:10:11.983Z,98233.41
2019-02-10T15:12:41.532Z,98245.19
2019-02-10T15:15:11.157Z,98249.91
2019-02-10T15:17:40.637Z,98250.45
2019-02-10T15:20:10.238Z,98251.72
2019-02-10T15:22:39.774Z,98247.03
2019-02-10T15:25:09.529Z,98248.87
2019-02-10T15:27:39.931Z,98254.78
2019-02-10T15:30:10.889Z,98257.63
2019-02-10T15:32:40.361Z,98254.20
2019-02-10T15:35:09.921Z,98253.64
2019-02-10T15:37:39.399Z,98250.05
2019-02-10T15:40:08.993Z,98253.16
2019-02-10T15:42:38.471Z,98251.47
2019-02-10T15:45:08.937Z,98249.89
2019-02-10T15:47:38.406Z,98254.41
2019-02-10T15:50:08.661Z,98240.89
2019-02-10T15:52:38.146Z,98267.39
2019-02-10T15:55:08.603Z,98256.57
2019-02-10T15:57:38.076Z,98254.98
2019-02-10T16:00:11.394Z,98266.97
2019-02-10T16:02:40.893Z,98260.02
2019-02-10T16:05:10.369Z,98265.72
2019-02-10T16:07:39.877Z,98270.95
2019-02-10T16:10:10.444Z,98269.43
2019-02-10T16:12:39.916Z,98270.77
2019-02-10T16:15:09.962Z,98281.58
2019-02-10T16:17:39.434Z,98283.17
2019-02-10T16:20:10.636Z,98289.62
2019-02-10T16:22:41.109Z,98278.77
2019-02-10T16:25:10.703Z,98294.46
2019-02-10T16:27:40.189Z,98286.84
2019-02-10T16:30:10.932Z,98289.06
2019-02-10T16:32:40.414Z,98295.53
2019-02-10T16:35:10.167Z,98290.24
2019-02-10T16:37:39.656Z,98302.20
2019-02-10T16:40:11.880Z,98312.98
2019-02-10T16:42:41.367Z,98304.41
2019-02-10T16:45:11.387Z,98322.17
2019-02-10T16:47:40.879Z,98320.05
2019-02-10T16:50:11.088Z,98320.91
2019-02-10T16:52:41.544Z,98321.58
2019-02-10T16:55:12.076Z,98325.39
2019-02-10T16:57:41.572Z,98334.80
2019-02-10T17:00:12.521Z,98337.44
2019-02-10T17:02:42.052Z,98330.58
2019-02-10T17:05:11.617Z,98326.48
2019-02-10T17:07:41.185Z,98329.81
2019-02-10T17:10:11.961Z,98333.44
2019-02-10T17:12:41.432Z,98293.78
2019-02-10T17:15:11.221Z,98331.52
2019-02-10T17:17:40.710Z,98341.05
2019-02-10T17:20:10.823Z,98334.20
2019-02-10T17:22:40.506Z,98335.14
2019-02-10T17:25:11.966Z,98334.70
2019-02-10T17:27:41.458Z,98335.55
2019-02-10T17:30:11.768Z,98334.21
2019-02-10T17:32:41.270Z,98336.48
2019-02-10T17:35:10.818Z,98336.55
2019-02-10T17:37:40.322Z,98348.50
2019-02-10T17:40:16.789Z,98361.91
2019-02-10T17:42:46.266Z,98366.16
2019-02-10T17:45:15.830Z,98361.42
2019-02-10T17:47:45.303Z,98360.78
2019-02-10T17:50:14.797Z,98363.34
2019-02-10T17:52:44.284Z,98368.01
2019-02-10T17:55:13.743Z,98368.48
2019-02-10T17:57:43.229Z,98378.18
2019-02-10T18:00:13.309Z,98378.25
2019-02-10T18:02:42.814Z,98378.80
2019-02-10T18:05:12.364Z,98385.52
2019-02-10T18:07:41.857Z,98392.42
2019-02-10T18:10:11.752Z,98401.66
2019-02-10T18:12:41.522Z,98407.96
2019-02-10T18:15:45.528Z,98408.37
2019-02-10T18:18:27.476Z,98411.84
2019-02-10T18:21:16.972Z,98419.86
2019-02-10T18:24:09.127Z,98416.66
2019-02-10T18:26:47.315Z,98431.02
2019-02-10T18:29:36.888Z,98438.37
2019-02-10T18:32:29.367Z,98439.05
2019-02-10T18:35:16.624Z,98442.98
2019-02-10T18:38:08.289Z,98448.45
2019-02-10T18:40:55.135Z,98444.49
2019-02-10T18:43:37.915Z,98453.17
2019-02-10T18:46:34.972Z,98463.34
2019-02-10T18:49:16.690Z,98466.72
2019-02-10T18:51:55.091Z,98454.74
2019-02-10T18:54:42.388Z,98463.94
2019-02-10T18:57:18.260Z,98469.48
2019-02-10T18:59:54.838Z,98476.33
2019-02-10T19:03:01.942Z,98496.30
2019-02-10T19:05:40.566Z,98499.55
2019-02-10T19:08:23.878Z,98426.85
2019-02-10T19:11:00.638Z,98521.41
2019-02-10T19:13:50.616Z,98531.24
2019-02-10T19:16:39.144Z,98531.66
2019-02-10T19:19:17.993Z,98546.84
2019-02-10T19:22:10.524Z,98548.80
2019-02-10T19:24:57.043Z,98553.92
2019-02-10T19:27:33.910Z,98572.57
2019-02-10T19:30:38.074Z,98579.45
2019-02-10T19:33:25.510Z,98582.38
2019-02-10T19:36:02.495Z,98587.40
2019-02-10T19:38:49.575Z,98592.10
2019-02-10T19:41:44.237Z,98605.67
2019-02-10T19:44:33.644Z,98604.81
2019-02-10T19:47:09.980Z,98618.39
2019-02-10T19:49:56.701Z,98616.70
2019-02-10T19:52:48.227Z,98628.53
2019-02-10T19:55:36.845Z,98641.20
2019-02-10T19:58:24.362Z,98647.14
2019-02-10T20:01:21.245Z,98652.22
2019-02-10T20:04:12.877Z,98673.34
2019-02-10T20:06:51.288Z,98677.53
2019-02-10T20:09:27.967Z,98696.55
2019-02-10T20:12:22.947Z,98703.20
2019-02-10T20:15:10.448Z,98707.48
2019-02-10T20:18:05.030Z,98715.97
2019-02-10T20:20:56.614Z,98720.14
2019-02-10T20:23:33.370Z,98724.80
2019-02-10T20:26:19.885Z,98738.42
2019-02-10T20:29:07.242Z,98753.23
2019-02-10T20:31:49.217Z,98732.00
2019-02-10T20:34:25.874Z,98770.08
2019-02-10T20:37:13.160Z,98774.36
2019-02-10T20:40:00.661Z,98787.64
2019-02-10T20:42:55.259Z,98799.98
2019-02-10T20:45:47.504Z,98805.02
2019-02-10T20:48:27.421Z,98812.44
2019-02-10T20:51:14.669Z,98818.39
2019-02-10T20:54:02.103Z,98824.61
2019-02-10T20:56:49.490Z,98831.09
2019-02-10T20:59:26.197Z,98843.41
2019-02-10T21:02:18.680Z,98854.04
2019-02-10T21:04:54.052Z,98858.99
2019-02-10T21:07:43.807Z,98862.87
2019-02-10T21:10:32.342Z,98872.03
2019-02-10T21:13:19.637Z,98870.55
2019-02-10T21:16:02.849Z,98888.11
2019-02-10T21:18:50.173Z,98890.93
2019-02-10T21:21:37.071Z,98899.33
2019-02-10T21:24:41.083Z,98911.02
2019-02-10T21:27:16.831Z,98913.02
2019-02-10T21:29:55.770Z,98917.93
2019-02-10T21:32:41.449Z,98926.72
2019-02-10T21:35:23.943Z,98927.75
2019-02-10T21:38:14.641Z,98928.52
2019-02-10T21:40:57.375Z,98943.33
2019-02-10T21:43:44.477Z,98951.58
2019-02-10T21:46:38.927Z,98946.90
2019-02-10T21:49:11.050Z,98954.76
2019-02-10T21:51:40.561Z,98960.12
2019-02-10T21:54:10.057Z,98973.47
2019-02-10T21:56:39.635Z,98976.70
2019-02-10T21:59:09.128Z,98978.36
2019-02-10T22:01:38.634Z,98985.13
2019-02-10T22:04:08.131Z,98993.52
2019-02-10T22:06:37.658Z,99010.05
2019-02-10T22:09:07.746Z,99011.83
2019-02-10T22:11:37.923Z,99012.91
2019-02-10T22:14:07.432Z,99030.83
2019-02-10T22:16:36.969Z,99033.70
2019-02-10T22:19:06.461Z,99040.98
2019-02-10T22:21:35.982Z,99038.68
2019-02-10T22:24:05.500Z,99046.33
2019-02-10T22:26:35.070Z,99057.63
2019-02-10T22:29:05.533Z,99065.99
2019-02-10T22:31:35.063Z,99066.70
2019-02-10T22:34:04.641Z,99076.95
2019-02-10T22:36:34.126Z,99083.16
2019-02-10T22:39:04.366Z,99089.64
2019-02-10T22:41:34.221Z,99097.38
2019-02-10T22:44:04.693Z,99103.20
2019-02-10T22:46:34.179Z,99120.41
2019-02-10T22:49:03.683Z,99124.65
2019-02-10T22:51:33.172Z,99131.98
2019-02-10T22:54:02.689Z,99135.55
2019-02-10T22:56:32.201Z,99148.94
2019-02-10T22:59:01.707Z,99158.58
2019-02-10T23:01:31.493Z,99161.70
2019-02-10T23:04:00.972Z,99176.03
2019-02-10T23:06:30.445Z,99184.16
2019-02-10T23:09:00.575Z,99189.65
2019-02-10T23:11:30.050Z,99196.06
2019-02-10T23:13:59.547Z,99203.05
2019-02-10T23:16:29.039Z,99202.64
2019-02-10T23:18:58.520Z,99216.34
2019-02-10T23:21:28.010Z,99222.53
2019-02-10T23:23:57.502Z,99232.45
2019-02-10T23:26:26.969Z,99241.63
2019-02-10T23:28:56.457Z,99245.77
2019-02-10T23:31:25.929Z,99250.04
2019-02-10T23:33:55.425Z,99262.81
2019-02-10T23:36:24.912Z,99276.85
2019-02-10T23:38:54.406Z,99284.70
2019-02-10T23:41:23.882Z,99287.90
2019-02-10T23:43:53.365Z,99298.83
2019-02-10T23:46:22.848Z,99304.70
2019-02-10T23:48:52.349Z,99316.73
2019-02-10T23:51:21.834Z,99329.52
2019-02-10T23:53:51.331Z,99342.55
2019-02-10T23:56:20.820Z,99354.73
2019-02-10T23:58:50.335Z,99359.06
